Albany, Texas
Current Conditions -  °F | °C
As of 4:15 AM on Thursday 29 Jan 2015 (Local Time) from KBKD Reporting Station
Clear Clear  
Wind Chill: 55°   Ceiling: Unl
Heat Index: 55°   Visibility: 10mi
Dew Point: 42°   Wind: 3mph
Humidity: 63%   Direction: 310°NW
Pressure: 30.12"   Gusts: NA
Location:  32.72°N, 99.3°W
Report Text: KBKD 291015Z AUTO 31003KT 10SM CLR 13/06 A3012 RMK AO2 T01250057
Loading
Personal Weather Stations






























Interactive Weather Map New forecast layout! Learn more

10-Day Weather Forecast

Advertisements
Track Severe Weather on mobile